createdAt,value
2023-03-25T00:04:18.081Z,2.90
2023-03-25T00:09:20.865Z,2.83
2023-03-25T00:14:25.406Z,2.93
2023-03-25T00:19:28.620Z,3.17
2023-03-25T00:24:31.040Z,3.10
2023-03-25T00:29:33.397Z,2.80
2023-03-25T00:34:42.282Z,2.53
2023-03-25T00:39:46.029Z,2.72
2023-03-25T00:44:49.694Z,3.00
2023-03-25T00:49:52.303Z,2.60
2023-03-25T00:54:54.585Z,2.87
2023-03-25T00:59:56.950Z,2.77
2023-03-25T01:05:00.378Z,2.87
2023-03-25T01:10:04.534Z,2.60
2023-03-25T01:15:18.466Z,2.40
2023-03-25T01:20:22.911Z,3.13
2023-03-25T01:25:25.240Z,3.33
2023-03-25T01:30:27.683Z,2.77
2023-03-25T01:35:30.843Z,2.90
2023-03-25T01:40:33.161Z,2.07
2023-03-25T01:45:35.502Z,2.27
2023-03-25T01:50:40.908Z,2.80
2023-03-25T01:55:44.839Z,2.90
2023-03-25T02:00:48.039Z,2.30
2023-03-25T02:06:06.281Z,2.57
2023-03-25T02:11:10.473Z,2.40
2023-03-25T02:16:26.751Z,2.60
2023-03-25T02:21:57.034Z,2.27
2023-03-25T02:27:46.232Z,2.58
2023-03-25T02:33:14.494Z,2.55
2023-03-25T02:38:31.755Z,2.70
2023-03-25T02:43:40.821Z,2.47
2023-03-25T02:49:23.636Z,2.50
2023-03-25T02:59:33.563Z,2.53
2023-03-25T03:04:50.959Z,2.70
2023-03-25T03:10:21.324Z,2.80
2023-03-25T03:21:14.519Z,2.50
2023-03-25T03:26:53.622Z,2.90
2023-03-25T03:32:14.541Z,2.93
2023-03-25T03:37:20.059Z,2.67
2023-03-25T03:42:29.075Z,2.80
2023-03-25T03:47:37.365Z,3.78
2023-03-25T03:52:45.697Z,3.10
2023-03-25T03:58:00.289Z,2.67
2023-03-25T04:03:07.532Z,3.00
2023-03-25T04:08:33.428Z,2.60
2023-03-25T04:13:40.013Z,2.50
2023-03-25T04:18:46.414Z,2.93
2023-03-25T04:23:50.205Z,3.27
2023-03-25T04:28:52.551Z,3.23
2023-03-25T04:33:54.890Z,2.80
2023-03-25T04:38:57.367Z,2.67
2023-03-25T04:44:00.322Z,2.53
2023-03-25T04:49:14.509Z,3.03
2023-03-25T04:54:18.297Z,3.93
2023-03-25T04:59:21.630Z,3.33
2023-03-25T05:04:25.104Z,2.90
2023-03-25T05:09:27.611Z,3.10
2023-03-25T05:14:30.070Z,3.13
2023-03-25T05:19:35.605Z,2.90
2023-03-25T05:24:38.036Z,3.33
2023-03-25T05:29:40.438Z,2.87
2023-03-25T05:34:43.007Z,3.10
2023-03-25T05:39:46.488Z,2.90
2023-03-25T05:44:53.092Z,3.40
2023-03-25T05:49:55.432Z,3.87
2023-03-25T05:54:57.811Z,3.20
2023-03-25T06:00:00.274Z,3.60
2023-03-25T06:05:02.829Z,3.77
2023-03-25T06:10:06.520Z,3.60
2023-03-25T06:15:10.122Z,3.77
2023-03-25T06:20:14.457Z,3.63
2023-03-25T06:25:35.221Z,3.80
2023-03-25T06:30:37.600Z,3.90
2023-03-25T06:35:43.925Z,3.73
2023-03-25T06:40:48.276Z,4.00
2023-03-25T06:45:52.257Z,4.07
2023-03-25T06:51:13.652Z,5.07
2023-03-25T06:56:18.460Z,3.93
2023-03-25T07:01:21.126Z,4.83
2023-03-25T07:06:24.333Z,5.13
2023-03-25T07:11:29.597Z,5.40
2023-03-25T07:16:31.991Z,4.40
2023-03-25T07:21:34.366Z,5.93
2023-03-25T07:26:36.922Z,5.03
2023-03-25T07:31:40.697Z,5.10
2023-03-25T07:36:46.256Z,5.53
2023-03-25T07:41:48.810Z,4.77
2023-03-25T07:47:11.392Z,5.23
2023-03-25T07:52:13.785Z,6.20
2023-03-25T07:57:16.415Z,6.70
2023-03-25T08:02:19.238Z,5.60
2023-03-25T08:07:21.935Z,6.17
2023-03-25T08:12:24.237Z,5.43
2023-03-25T08:17:26.788Z,7.57
2023-03-25T08:22:29.207Z,6.03
2023-03-25T08:27:44.141Z,7.20
2023-03-25T08:32:46.619Z,6.93
2023-03-25T08:37:49.268Z,6.90
2023-03-25T08:42:51.795Z,9.47
2023-03-25T08:47:54.465Z,7.13
2023-03-25T08:52:59.286Z,7.10
2023-03-25T08:58:06.625Z,6.90
2023-03-25T09:03:10.122Z,6.93
2023-03-25T09:08:12.894Z,8.83
2023-03-25T09:13:15.955Z,7.37
2023-03-25T09:18:18.727Z,7.27
2023-03-25T09:23:21.067Z,6.57
2023-03-25T09:28:26.368Z,7.63
2023-03-25T09:33:29.245Z,8.40
2023-03-25T09:38:31.609Z,8.80
2023-03-25T09:44:06.387Z,8.57
2023-03-25T09:49:16.971Z,7.97
2023-03-25T09:54:23.919Z,8.40
2023-03-25T10:00:01.052Z,8.80
2023-03-25T10:05:12.411Z,7.90
2023-03-25T10:10:30.727Z,9.53
2023-03-25T10:15:59.044Z,8.43
2023-03-25T10:21:09.820Z,9.40
2023-03-25T10:26:25.485Z,8.80
2023-03-25T10:31:46.441Z,9.10
2023-03-25T10:37:08.158Z,8.53
2023-03-25T10:43:00.524Z,9.20
2023-03-25T10:48:11.776Z,11.90
2023-03-25T10:53:25.792Z,8.90
2023-03-25T10:58:28.332Z,9.27
2023-03-25T11:03:34.755Z,9.90
2023-03-25T11:08:37.422Z,9.13
2023-03-25T11:13:41.758Z,9.73
2023-03-25T11:18:44.811Z,18.63
2023-03-25T11:23:49.031Z,12.13
2023-03-25T11:28:54.971Z,10.10
2023-03-25T11:34:09.399Z,13.00
2023-03-25T11:39:19.186Z,11.77
2023-03-25T11:44:31.195Z,11.80
2023-03-25T11:49:39.048Z,10.37
2023-03-25T11:54:42.460Z,9.53
2023-03-25T11:59:46.920Z,10.47
2023-03-25T12:05:02.158Z,10.50
2023-03-25T12:10:07.836Z,11.00
2023-03-25T12:15:11.801Z,9.57
2023-03-25T12:20:32.633Z,10.37
2023-03-25T12:26:11.181Z,10.03
2023-03-25T12:31:38.607Z,10.83
2023-03-25T12:37:19.843Z,9.93
2023-03-25T12:43:06.030Z,11.43
2023-03-25T12:48:40.679Z,10.57
2023-03-25T12:53:54.848Z,11.47
2023-03-25T12:59:00.387Z,9.80
2023-03-25T13:04:09.219Z,9.63
2023-03-25T13:09:25.802Z,9.30
2023-03-25T13:14:51.053Z,10.07
2023-03-25T13:19:57.017Z,9.47
2023-03-25T13:25:02.114Z,11.03
2023-03-25T13:30:06.127Z,11.47
2023-03-25T13:35:18.947Z,9.90
2023-03-25T13:40:24.684Z,9.73
2023-03-25T13:45:30.724Z,9.40
2023-03-25T13:50:33.594Z,9.40
2023-03-25T13:55:40.963Z,10.60
2023-03-25T14:01:13.521Z,8.90
2023-03-25T14:06:26.560Z,9.10
2023-03-25T14:11:52.659Z,9.50
2023-03-25T14:16:58.746Z,8.27
2023-03-25T14:22:27.636Z,8.13
2023-03-25T14:27:35.027Z,8.23
2023-03-25T14:32:41.166Z,8.27
2023-03-25T14:37:44.145Z,9.20
2023-03-25T14:43:00.153Z,8.00
2023-03-25T14:48:22.949Z,8.50
2023-03-25T14:53:28.872Z,8.70
2023-03-25T14:58:32.033Z,7.93
2023-03-25T15:03:46.111Z,8.77
2023-03-25T15:08:57.201Z,8.30
2023-03-25T15:14:05.204Z,7.53
2023-03-25T15:19:11.609Z,8.03
2023-03-25T15:24:17.245Z,11.77
2023-03-25T15:29:40.063Z,10.60
2023-03-25T15:35:10.647Z,8.90
2023-03-25T15:40:34.953Z,8.90
2023-03-25T15:45:43.393Z,7.63
2023-03-25T15:51:06.571Z,8.57
2023-03-25T15:56:34.614Z,9.60
2023-03-25T16:01:39.676Z,9.23
2023-03-25T16:06:44.849Z,7.43
2023-03-25T16:11:47.310Z,7.50
2023-03-25T16:16:54.796Z,7.83
2023-03-25T16:22:02.162Z,7.63
2023-03-25T16:27:12.176Z,7.17
2023-03-25T16:32:23.387Z,7.23
2023-03-25T16:37:26.295Z,7.53
2023-03-25T16:42:35.795Z,8.40
2023-03-25T16:47:38.338Z,7.88
2023-03-25T16:52:40.928Z,8.80
2023-03-25T16:57:43.281Z,8.17
2023-03-25T17:02:48.775Z,8.10
2023-03-25T17:07:59.535Z,8.97
2023-03-25T17:13:05.791Z,8.40
2023-03-25T17:18:14.608Z,8.33
2023-03-25T17:23:16.873Z,8.20
2023-03-25T17:28:40.454Z,9.53
2023-03-25T17:33:51.739Z,9.40
2023-03-25T17:38:54.404Z,9.27
2023-03-25T17:43:58.430Z,9.97
2023-03-25T17:49:01.016Z,9.40
2023-03-25T17:54:03.553Z,9.90
2023-03-25T17:59:10.808Z,9.27
2023-03-25T18:04:15.272Z,8.83
2023-03-25T18:09:25.336Z,9.17
2023-03-25T18:14:28.233Z,9.37
2023-03-25T18:19:34.474Z,10.23
2023-03-25T18:24:38.258Z,8.87
2023-03-25T18:29:40.872Z,9.20
2023-03-25T18:34:43.452Z,7.73
2023-03-25T18:39:46.216Z,8.00
2023-03-25T18:44:50.626Z,8.60
2023-03-25T18:50:12.101Z,8.53
2023-03-25T18:55:15.484Z,9.10
2023-03-25T19:00:29.344Z,9.57
2023-03-25T19:05:33.881Z,8.23
2023-03-25T19:10:36.449Z,8.43
2023-03-25T19:15:39.370Z,9.00
2023-03-25T19:20:44.962Z,8.80
2023-03-25T19:25:50.057Z,9.97
2023-03-25T19:30:54.928Z,10.20
2023-03-25T19:36:00.164Z,9.60
2023-03-25T19:41:08.499Z,10.00
2023-03-25T19:46:11.137Z,8.23
2023-03-25T19:51:17.246Z,8.63
2023-03-25T19:56:28.193Z,9.67
2023-03-25T20:01:31.396Z,10.40
2023-03-25T20:06:34.042Z,9.77
2023-03-25T20:11:36.387Z,9.50
2023-03-25T20:16:38.966Z,9.73
2023-03-25T20:21:41.622Z,10.03
2023-03-25T20:26:44.157Z,9.83
2023-03-25T20:31:47.830Z,9.40
2023-03-25T20:36:50.365Z,9.30
2023-03-25T20:41:52.693Z,8.90
2023-03-25T20:46:55.143Z,9.03
2023-03-25T20:51:59.781Z,10.13
2023-03-25T20:57:02.274Z,12.37
2023-03-25T21:02:10.702Z,13.07
2023-03-25T21:07:22.836Z,12.48
2023-03-25T21:12:36.454Z,11.27
2023-03-25T21:17:45.570Z,14.20
2023-03-25T21:22:48.045Z,10.30
2023-03-25T21:27:51.666Z,11.50
2023-03-25T21:32:54.462Z,11.00
2023-03-25T21:37:56.858Z,16.87
2023-03-25T21:42:59.241Z,14.47
2023-03-25T21:48:05.483Z,20.80
2023-03-25T21:53:13.570Z,11.00
2023-03-25T21:58:16.701Z,12.07
2023-03-25T22:03:19.192Z,14.60
2023-03-25T22:08:21.576Z,17.87
2023-03-25T22:13:23.862Z,16.10
2023-03-25T22:18:27.007Z,13.20
2023-03-25T22:23:29.301Z,11.97
2023-03-25T22:28:31.686Z,11.80
2023-03-25T22:33:36.523Z,9.23
2023-03-25T22:38:48.486Z,10.73
2023-03-25T22:43:50.841Z,18.73
2023-03-25T22:48:53.113Z,9.10
2023-03-25T22:53:55.695Z,17.13
2023-03-25T22:58:58.089Z,15.03
2023-03-25T23:04:00.501Z,16.73
2023-03-25T23:09:05.129Z,11.50
2023-03-25T23:14:13.486Z,14.73
2023-03-25T23:19:15.824Z,8.70
2023-03-25T23:24:18.198Z,6.83
2023-03-25T23:29:20.827Z,8.67
2023-03-25T23:34:23.081Z,6.60
2023-03-25T23:39:28.114Z,7.13
2023-03-25T23:44:30.450Z,5.47
2023-03-25T23:49:34.211Z,5.77
2023-03-25T23:54:36.520Z,6.50
2023-03-25T23:59:44.609Z,5.60
